Terminal Aerodrome Forecast
Issued by NWS Tulsa, OK

Home | Current Version | Previous Version | Text Only | Print | Product List | Glossary On
Versions: 1 2 3 4 5 6 7 8 9 10 11 12 13 14
429
FTUS44 KTSA 230520
TAFFSM
TAF
KFSM 230520Z 2306/2406 VRB04KT P6SM VCSH SCT050 BKN100
     FM231200 29003KT 5SM BR OVC015
     FM231600 29008KT P6SM BKN025
     FM231900 30010G16KT P6SM BKN050
      TEMPO 2320/2323 4SM -TSRA BKN030CB
     FM240000 29007KT P6SM BKN100=

USA.gov is the U.S. government's official web portal to all federal, state and local government web resources and services.